Time;durP1;ratioP1;P1;durP2;ratioP2;P2;SDS_P1;SDS_P2;PMS_P1;PMS_P2;Temp;Humidity;BMP_temperature;BMP_pressure;BME280_temperature;BME280_humidity;BME280_pressure;Samples;Min_cycle;Max_cycle;Signal;HPM_P1;HPM_P2
2022/10/20 00:00:05;;;;;;;6.03;1.88;;;18.20;99.90;;;;;;5065076;28;20218;-89
2022/10/20 00:02:31;;;;;;;14.85;1.80;;;18.20;99.90;;;;;;5066747;28;20044;-89
2022/10/20 00:04:57;;;;;;;11.35;2.65;;;18.20;99.90;;;;;;5069838;28;20232;-89
2022/10/20 00:07:22;;;;;;;5.57;1.67;;;18.10;99.90;;;;;;5072469;28;20084;-89
2022/10/20 00:09:48;;;;;;;8.63;1.70;;;18.10;99.90;;;;;;5068237;28;20302;-89
2022/10/20 00:12:13;;;;;;;11.32;2.08;;;18.00;99.90;;;;;;5070335;28;20196;-89
2022/10/20 00:14:39;;;;;;;6.82;1.70;;;17.90;99.90;;;;;;5066209;28;20086;-89
2022/10/20 00:17:05;;;;;;;10.43;2.25;;;17.90;99.90;;;;;;5060358;28;20467;-89
2022/10/20 00:19:31;;;;;;;11.07;2.60;;;17.80;99.90;;;;;;5055461;28;20021;-89
2022/10/20 00:21:58;;;;;;;8.85;2.05;;;17.80;99.90;;;;;;5068218;28;20017;-89
2022/10/20 00:24:24;;;;;;;10.32;2.00;;;17.80;99.90;;;;;;5074560;28;20035;-89
2022/10/20 00:26:50;;;;;;;8.20;2.40;;;17.80;99.90;;;;;;5069706;28;20016;-89
2022/10/20 00:29:16;;;;;;;8.05;2.30;;;17.80;99.90;;;;;;5075485;28;20028;-89
2022/10/20 00:31:42;;;;;;;7.63;2.13;;;17.70;99.90;;;;;;5068369;28;20028;-89
2022/10/20 00:34:09;;;;;;;12.13;2.55;;;17.70;99.90;;;;;;5069168;28;20122;-90
2022/10/20 00:36:34;;;;;;;9.77;2.55;;;17.60;99.90;;;;;;5060654;28;20216;-89
2022/10/20 00:39:02;;;;;;;9.38;2.42;;;17.60;99.90;;;;;;5069109;28;20028;-89
2022/10/20 00:41:28;;;;;;;7.00;2.22;;;17.60;99.90;;;;;;5068049;28;20209;-89
2022/10/20 00:43:57;;;;;;;10.48;2.33;;;17.60;99.90;;;;;;5063654;28;20159;-89
2022/10/20 00:46:29;;;;;;;8.48;2.58;;;17.60;99.90;;;;;;5061276;28;20055;-89
2022/10/20 00:49:03;;;;;;;11.52;2.65;;;17.60;99.90;;;;;;5083663;28;20036;-88
2022/10/20 00:51:31;;;;;;;6.22;2.50;;;17.60;99.90;;;;;;5074487;28;20021;-88
2022/10/20 00:54:18;;;;;;;11.00;2.33;;;17.60;99.90;;;;;;5075642;28;20024;-89
2022/10/20 00:56:47;;;;;;;7.00;2.17;;;17.60;99.90;;;;;;5079233;28;20040;-89
2022/10/20 00:59:20;;;;;;;8.27;2.20;;;17.50;99.90;;;;;;5073522;28;20023;-88
2022/10/20 01:01:46;;;;;;;11.40;2.27;;;17.50;99.90;;;;;;5071620;28;20317;-88
2022/10/20 01:04:12;;;;;;;5.43;2.17;;;17.50;99.90;;;;;;5074557;28;20078;-89
2022/10/20 01:06:38;;;;;;;8.60;2.30;;;17.50;99.90;;;;;;5077026;28;20072;-89
2022/10/20 01:09:04;;;;;;;10.23;2.22;;;17.50;99.90;;;;;;5072117;28;20028;-89
2022/10/20 01:11:59;;;;;;;9.40;2.00;;;17.50;99.90;;;;;;5073788;28;20016;-89
2022/10/20 01:14:33;;;;;;;7.15;1.80;;;17.50;99.90;;;;;;5069540;28;20324;-89
2022/10/20 01:17:33;;;;;;;6.57;1.80;;;17.40;99.90;;;;;;5072784;28;20318;-89
2022/10/20 01:20:30;;;;;;;8.48;1.77;;;17.40;99.90;;;;;;5080167;28;20035;-89
2022/10/20 01:23:18;;;;;;;6.95;2.00;;;17.40;99.90;;;;;;5055977;28;20393;-88
2022/10/20 01:25:55;;;;;;;6.78;1.73;;;17.30;99.90;;;;;;5073316;28;20483;-91
2022/10/20 01:28:49;;;;;;;10.18;2.00;;;17.30;99.90;;;;;;5082999;28;20244;-89
2022/10/20 01:31:28;;;;;;;7.07;1.85;;;17.30;99.90;;;;;;5074157;28;20297;-90
2022/10/20 01:34:29;;;;;;;5.65;1.75;;;17.30;99.90;;;;;;5070594;28;20252;-89
2022/10/20 01:37:16;;;;;;;5.45;1.58;;;17.30;99.90;;;;;;5069729;28;20016;-89
2022/10/20 01:39:53;;;;;;;7.00;2.08;;;17.20;99.90;;;;;;5077973;28;20024;-90
2022/10/20 01:42:24;;;;;;;5.53;1.48;;;17.20;99.90;;;;;;5075384;28;20053;-89
2022/10/20 01:44:54;;;;;;;6.43;2.00;;;17.20;99.90;;;;;;5080788;28;20309;-89
2022/10/20 01:47:23;;;;;;;4.28;1.35;;;17.10;99.90;;;;;;5073334;28;20020;-90
2022/10/20 01:49:50;;;;;;;7.43;2.15;;;17.10;99.90;;;;;;5085757;28;20019;-89
2022/10/20 01:52:17;;;;;;;11.93;2.53;;;17.10;99.90;;;;;;5080189;28;20032;-90
2022/10/20 01:54:42;;;;;;;9.35;2.15;;;17.10;99.90;;;;;;5072776;28;20024;-90
2022/10/20 01:57:26;;;;;;;8.48;1.83;;;17.10;99.90;;;;;;5071696;28;20040;-90
2022/10/20 02:00:09;;;;;;;5.50;1.90;;;17.00;99.90;;;;;;5069088;28;20079;-89
2022/10/20 02:02:53;;;;;;;8.85;1.95;;;17.00;99.90;;;;;;5093404;28;20100;-90
2022/10/20 02:05:46;;;;;;;9.35;1.70;;;17.00;99.90;;;;;;5075076;28;20016;-89
2022/10/20 02:08:25;;;;;;;10.88;2.35;;;16.90;99.90;;;;;;5070112;28;20020;-90
2022/10/20 02:10:57;;;;;;;5.72;1.98;;;16.90;99.90;;;;;;5076436;28;20223;-89
2022/10/20 02:13:25;;;;;;;5.43;2.35;;;16.90;99.90;;;;;;5077257;28;20020;-90
2022/10/20 02:15:55;;;;;;;4.45;1.60;;;16.90;99.90;;;;;;5074132;28;20369;-89
2022/10/20 02:18:26;;;;;;;5.97;2.00;;;16.90;99.90;;;;;;5074041;28;20209;-90
2022/10/20 02:20:55;;;;;;;8.80;1.90;;;16.90;99.90;;;;;;5063970;28;20024;-89
2022/10/20 02:23:20;;;;;;;6.55;2.05;;;16.90;99.90;;;;;;5063965;28;20036;-90
2022/10/20 02:25:49;;;;;;;6.75;1.77;;;16.80;99.90;;;;;;5068649;28;20029;-89
2022/10/20 02:28:16;;;;;;;9.50;1.77;;;16.90;99.90;;;;;;5075904;28;20052;-89
2022/10/20 02:30:43;;;;;;;7.65;2.03;;;16.90;99.90;;;;;;5070491;28;20135;-90
2022/10/20 02:33:10;;;;;;;6.32;1.95;;;16.80;99.90;;;;;;5072400;28;20023;-89
2022/10/20 02:35:35;;;;;;;9.45;2.47;;;16.80;99.90;;;;;;5069864;28;20047;-89
2022/10/20 02:38:02;;;;;;;6.55;2.20;;;16.80;99.90;;;;;;5066519;28;20330;-88
2022/10/20 02:40:28;;;;;;;13.07;2.85;;;16.70;99.90;;;;;;5076281;28;20013;-89
2022/10/20 02:42:53;;;;;;;9.18;3.00;;;16.80;99.90;;;;;;5074118;28;20383;-89
2022/10/20 02:45:19;;;;;;;7.72;2.00;;;16.70;99.90;;;;;;5063808;28;20051;-91
2022/10/20 02:47:45;;;;;;;8.35;2.30;;;16.70;99.90;;;;;;5068074;28;20017;-89
2022/10/20 02:50:11;;;;;;;9.18;2.17;;;16.70;99.90;;;;;;5077541;28;20025;-89
2022/10/20 02:52:36;;;;;;;8.25;2.00;;;16.60;99.90;;;;;;5074044;28;20339;-89
2022/10/20 02:55:03;;;;;;;10.20;2.15;;;16.60;99.90;;;;;;5077716;28;20012;-90
2022/10/20 02:57:29;;;;;;;6.43;2.00;;;16.60;99.90;;;;;;5078137;28;20028;-90
2022/10/20 02:59:55;;;;;;;7.88;2.20;;;16.60;99.90;;;;;;5064130;28;20029;-89
2022/10/20 03:02:20;;;;;;;9.38;2.38;;;16.60;99.90;;;;;;5069464;28;20025;-89
2022/10/20 03:04:46;;;;;;;10.40;2.58;;;16.50;99.90;;;;;;5080458;28;20039;-89
2022/10/20 03:07:13;;;;;;;10.07;2.35;;;16.50;99.90;;;;;;5068167;28;20021;-90
2022/10/20 03:09:38;;;;;;;7.15;2.97;;;16.50;99.90;;;;;;5080003;28;20083;-89
2022/10/20 03:12:04;;;;;;;4.55;2.17;;;16.50;99.90;;;;;;5066884;28;20028;-89
2022/10/20 03:14:30;;;;;;;8.02;1.70;;;16.40;99.90;;;;;;5074892;28;20020;-90
2022/10/20 03:16:56;;;;;;;8.60;1.80;;;16.40;99.90;;;;;;5066336;28;20127;-89
2022/10/20 03:19:21;;;;;;;6.93;2.15;;;16.40;99.90;;;;;;5063924;28;20067;-90
2022/10/20 03:21:48;;;;;;;7.78;2.05;;;16.40;99.90;;;;;;5081552;28;20304;-89
2022/10/20 03:24:14;;;;;;;6.30;1.98;;;16.40;99.90;;;;;;5071517;28;20044;-88
2022/10/20 03:26:40;;;;;;;9.75;2.38;;;16.30;99.90;;;;;;5071636;28;20036;-90
2022/10/20 03:29:05;;;;;;;10.00;2.10;;;16.30;99.90;;;;;;5071141;28;20070;-88
2022/10/20 03:31:31;;;;;;;8.38;2.00;;;16.30;99.90;;;;;;5077364;28;20020;-89
2022/10/20 03:33:57;;;;;;;8.30;2.47;;;16.30;99.90;;;;;;5070337;28;20275;-89
2022/10/20 03:36:23;;;;;;;7.03;2.17;;;16.30;99.90;;;;;;5071593;28;20021;-89
2022/10/20 03:38:49;;;;;;;6.35;2.00;;;16.30;99.90;;;;;;5068651;28;20024;-89
2022/10/20 03:41:14;;;;;;;8.82;2.28;;;16.30;99.90;;;;;;5069130;28;20349;-89
2022/10/20 03:43:40;;;;;;;8.65;2.15;;;16.30;99.90;;;;;;5064695;28;20119;-90
2022/10/20 03:46:09;;;;;;;6.30;2.00;;;16.30;99.90;;;;;;5068482;28;20027;-90
2022/10/20 03:48:36;;;;;;;10.82;2.53;;;16.30;99.90;;;;;;5063029;28;20025;-90
2022/10/20 03:51:03;;;;;;;6.28;1.75;;;16.30;99.90;;;;;;5065081;28;20209;-90
2022/10/20 03:53:29;;;;;;;7.85;2.20;;;16.30;99.90;;;;;;5071827;28;20309;-88
2022/10/20 03:55:55;;;;;;;13.02;2.10;;;16.20;99.90;;;;;;5079485;28;20020;-89
2022/10/20 03:58:20;;;;;;;5.22;1.90;;;16.10;99.90;;;;;;5068229;28;20078;-89
2022/10/20 04:00:47;;;;;;;10.30;2.15;;;16.20;99.90;;;;;;5054272;28;20044;-88
2022/10/20 04:03:13;;;;;;;6.50;1.80;;;16.20;99.90;;;;;;5076193;28;20089;-89
2022/10/20 04:05:39;;;;;;;5.95;1.92;;;16.20;99.90;;;;;;5069827;28;20028;-89
2022/10/20 04:08:05;;;;;;;8.23;2.00;;;16.10;99.90;;;;;;5079352;28;20098;-89
2022/10/20 04:10:31;;;;;;;9.00;2.28;;;16.10;99.90;;;;;;5078084;28;20028;-89
2022/10/20 04:12:58;;;;;;;5.50;2.08;;;16.00;99.90;;;;;;5078663;28;20216;-89
2022/10/20 04:15:23;;;;;;;7.03;1.98;;;16.00;99.90;;;;;;5072960;28;20025;-90
2022/10/20 04:17:49;;;;;;;10.05;2.30;;;16.00;99.90;;;;;;5069482;28;20021;-89
2022/10/20 04:20:15;;;;;;;5.70;2.13;;;16.00;99.90;;;;;;5069082;28;20054;-89
2022/10/20 04:22:40;;;;;;;6.45;2.13;;;16.00;99.90;;;;;;5071413;28;20386;-90
2022/10/20 04:25:07;;;;;;;8.02;2.15;;;16.00;99.90;;;;;;5075081;28;20051;-90
2022/10/20 04:27:32;;;;;;;7.93;1.90;;;15.90;99.90;;;;;;5061459;28;20092;-89
2022/10/20 04:29:58;;;;;;;7.45;2.30;;;15.90;99.90;;;;;;5059094;28;20037;-89
2022/10/20 04:32:24;;;;;;;4.90;2.13;;;15.90;99.90;;;;;;5054852;28;20025;-88
2022/10/20 04:34:49;;;;;;;13.40;2.50;;;15.90;99.90;;;;;;5054813;28;20041;-87
2022/10/20 04:37:15;;;;;;;8.30;2.60;;;15.80;99.90;;;;;;5063070;28;20028;-86
2022/10/20 04:39:40;;;;;;;8.27;2.20;;;15.90;99.90;;;;;;5067061;28;20017;-84
2022/10/20 04:42:06;;;;;;;8.32;2.35;;;15.80;99.90;;;;;;5055056;28;20035;-85
2022/10/20 04:44:32;;;;;;;7.60;2.40;;;15.90;99.90;;;;;;5058540;28;20089;-84
2022/10/20 04:46:57;;;;;;;7.25;2.33;;;15.90;99.90;;;;;;5053681;28;20075;-84
2022/10/20 04:49:23;;;;;;;7.65;2.38;;;15.90;99.90;;;;;;5055216;28;20540;-84
2022/10/20 04:51:49;;;;;;;7.85;2.00;;;15.90;99.90;;;;;;5055356;28;20016;-85
2022/10/20 04:54:14;;;;;;;7.32;2.20;;;15.90;99.90;;;;;;5051410;28;20260;-84
2022/10/20 04:56:40;;;;;;;6.80;1.75;;;15.90;99.90;;;;;;5049112;28;20482;-85
2022/10/20 04:59:05;;;;;;;7.75;2.00;;;15.90;99.90;;;;;;5048788;28;20033;-84
2022/10/20 05:01:31;;;;;;;7.60;2.10;;;15.90;99.90;;;;;;5053923;28;20171;-85
2022/10/20 05:03:57;;;;;;;5.93;2.10;;;15.90;99.90;;;;;;5054329;28;20075;-84
2022/10/20 05:06:29;;;;;;;4.82;1.60;;;15.90;99.90;;;;;;5058453;28;20043;-83
2022/10/20 05:08:58;;;;;;;5.45;1.83;;;15.90;99.90;;;;;;5061166;28;20043;-87
2022/10/20 05:11:26;;;;;;;5.28;1.83;;;16.00;99.90;;;;;;5059564;28;20183;-84
2022/10/20 05:13:52;;;;;;;5.82;1.92;;;16.00;99.90;;;;;;5062585;28;20029;-84
2022/10/20 05:16:17;;;;;;;5.13;1.70;;;16.00;99.90;;;;;;5052515;28;20032;-83
2022/10/20 05:18:44;;;;;;;8.90;2.25;;;16.00;99.90;;;;;;5052170;28;20017;-84
2022/10/20 05:21:12;;;;;;;5.93;1.90;;;16.00;99.90;;;;;;5051344;28;20108;-85
2022/10/20 05:23:39;;;;;;;8.38;1.90;;;16.00;99.90;;;;;;5062629;28;20064;-83
2022/10/20 05:26:07;;;;;;;7.82;2.28;;;15.90;99.90;;;;;;5049844;28;20082;-84
2022/10/20 05:28:33;;;;;;;8.90;1.92;;;15.90;99.90;;;;;;5060783;28;20562;-83
2022/10/20 05:31:03;;;;;;;5.57;1.90;;;15.90;99.90;;;;;;5055850;28;20259;-84
2022/10/20 05:33:29;;;;;;;7.07;1.77;;;15.90;99.90;;;;;;5057574;28;20090;-84
2022/10/20 05:35:54;;;;;;;5.15;2.05;;;15.90;99.90;;;;;;5056914;28;20033;-83
2022/10/20 05:38:20;;;;;;;7.13;2.20;;;15.90;99.90;;;;;;5058241;28;20098;-83
2022/10/20 05:40:45;;;;;;;5.97;1.90;;;15.90;99.90;;;;;;5057809;28;20393;-83
2022/10/20 05:43:11;;;;;;;7.30;2.53;;;15.90;99.90;;;;;;5060708;28;20041;-83
2022/10/20 05:45:37;;;;;;;6.70;2.30;;;15.90;99.90;;;;;;5055998;28;20096;-84
2022/10/20 05:48:02;;;;;;;5.43;2.50;;;15.90;99.90;;;;;;5054027;28;20033;-84
2022/10/20 05:50:28;;;;;;;7.85;2.45;;;15.80;99.90;;;;;;5061662;28;20016;-83
2022/10/20 05:52:54;;;;;;;5.88;2.20;;;15.80;99.90;;;;;;5069481;28;20120;-83
2022/10/20 05:55:19;;;;;;;8.77;2.60;;;15.80;99.90;;;;;;5065037;28;20108;-84
2022/10/20 05:57:49;;;;;;;5.32;2.08;;;15.70;99.90;;;;;;5062014;28;20116;-84
2022/10/20 06:00:15;;;;;;;10.30;2.25;;;15.70;99.90;;;;;;5057379;28;20025;-84
2022/10/20 06:02:41;;;;;;;8.02;1.83;;;15.70;99.90;;;;;;5060309;28;20048;-84
2022/10/20 06:05:07;;;;;;;5.47;2.15;;;15.70;99.90;;;;;;5063582;28;20436;-84
2022/10/20 06:07:33;;;;;;;7.72;2.35;;;15.70;99.90;;;;;;5064119;28;20088;-83
2022/10/20 06:09:58;;;;;;;8.55;2.50;;;15.70;99.90;;;;;;5062175;28;20126;-84
2022/10/20 06:12:24;;;;;;;7.05;2.13;;;15.70;99.90;;;;;;5056655;28;20275;-84
2022/10/20 06:14:50;;;;;;;7.72;1.98;;;15.60;99.90;;;;;;5058741;28;20032;-84
2022/10/20 06:17:15;;;;;;;13.20;2.47;;;15.60;99.90;;;;;;5055223;28;20021;-84
2022/10/20 06:19:41;;;;;;;13.00;2.65;;;15.60;99.90;;;;;;5061426;28;20021;-83
2022/10/20 06:22:06;;;;;;;12.95;3.03;;;15.60;99.90;;;;;;5054080;28;20057;-84
2022/10/20 06:24:32;;;;;;;8.55;2.80;;;15.60;99.90;;;;;;5053195;28;20044;-83
2022/10/20 06:26:58;;;;;;;7.22;2.47;;;15.60;99.90;;;;;;5058224;28;20028;-84
2022/10/20 06:29:24;;;;;;;10.27;2.60;;;15.70;99.90;;;;;;5065901;28;20033;-84
2022/10/20 06:31:50;;;;;;;11.55;3.08;;;15.60;99.90;;;;;;5061514;28;20082;-84
2022/10/20 06:34:21;;;;;;;9.60;2.30;;;15.70;99.90;;;;;;5058330;28;20154;-84
2022/10/20 06:36:47;;;;;;;6.72;2.65;;;15.70;99.90;;;;;;5074525;28;20107;-84
2022/10/20 06:39:16;;;;;;;5.25;2.50;;;15.70;99.90;;;;;;5056743;28;20398;-84
2022/10/20 06:41:45;;;;;;;10.65;2.30;;;15.70;99.90;;;;;;5055963;28;20029;-84
2022/10/20 06:44:11;;;;;;;9.57;2.97;;;15.80;99.90;;;;;;5055204;28;20039;-84
2022/10/20 06:46:37;;;;;;;9.32;3.03;;;15.80;99.90;;;;;;5052881;28;20108;-84
2022/10/20 06:49:05;;;;;;;7.03;3.15;;;15.80;99.90;;;;;;5053657;28;20040;-83
2022/10/20 06:51:31;;;;;;;6.53;2.50;;;15.80;99.90;;;;;;5052092;28;20101;-84
2022/10/20 06:53:58;;;;;;;7.50;2.70;;;15.80;99.90;;;;;;5061970;28;20024;-84
2022/10/20 06:56:27;;;;;;;6.60;2.50;;;15.90;99.90;;;;;;5059514;28;20025;-84
2022/10/20 06:58:54;;;;;;;8.90;2.90;;;15.90;99.90;;;;;;5059148;28;20039;-84
2022/10/20 07:01:22;;;;;;;6.72;3.00;;;15.90;99.90;;;;;;5057641;28;20036;-84
2022/10/20 07:03:49;;;;;;;11.18;2.88;;;16.00;99.90;;;;;;5061446;28;20068;-84
2022/10/20 07:06:18;;;;;;;6.97;2.60;;;16.00;99.90;;;;;;5070551;28;20020;-84
2022/10/20 07:08:44;;;;;;;10.57;3.10;;;16.10;99.90;;;;;;5058951;28;20028;-84
2022/10/20 07:11:15;;;;;;;9.98;2.80;;;16.20;99.90;;;;;;5057711;28;20561;-83
2022/10/20 07:13:42;;;;;;;11.18;2.80;;;16.30;99.90;;;;;;5057297;28;20032;-84
2022/10/20 07:16:10;;;;;;;6.70;2.67;;;16.40;99.90;;;;;;5054727;28;20013;-85
2022/10/20 07:18:36;;;;;;;8.75;2.70;;;16.40;99.90;;;;;;5055742;28;20017;-84
2022/10/20 07:21:05;;;;;;;8.65;3.00;;;16.50;99.90;;;;;;5053344;28;20048;-84
2022/10/20 07:23:31;;;;;;;9.65;2.40;;;16.50;99.90;;;;;;5053769;28;20079;-84
2022/10/20 07:26:03;;;;;;;9.93;2.70;;;16.60;99.90;;;;;;5051850;28;20450;-84
2022/10/20 07:28:29;;;;;;;10.20;2.50;;;16.60;99.90;;;;;;5055711;28;20024;-84
2022/10/20 07:30:57;;;;;;;11.23;2.90;;;16.70;99.90;;;;;;5058882;28;20025;-84
2022/10/20 07:33:23;;;;;;;7.80;2.75;;;16.60;99.90;;;;;;5058980;28;20032;-84
2022/10/20 07:35:49;;;;;;;10.70;2.97;;;16.60;99.90;;;;;;5058231;28;20557;-84
2022/10/20 07:38:15;;;;;;;13.05;3.47;;;16.70;99.90;;;;;;5055696;28;20125;-84
2022/10/20 07:40:40;;;;;;;12.23;3.00;;;16.70;99.90;;;;;;5057556;28;20272;-84
2022/10/20 07:43:06;;;;;;;5.57;2.67;;;16.80;99.90;;;;;;5054017;28;20624;-84
2022/10/20 07:45:32;;;;;;;10.32;3.33;;;16.80;99.90;;;;;;5054929;28;20020;-84
2022/10/20 07:47:58;;;;;;;7.22;2.80;;;16.80;99.90;;;;;;5052505;28;20056;-84
2022/10/20 07:50:24;;;;;;;8.43;2.78;;;16.80;99.90;;;;;;5052361;28;20029;-84
2022/10/20 07:52:53;;;;;;;7.78;2.90;;;16.90;99.90;;;;;;5051414;28;20027;-84
2022/10/20 07:55:19;;;;;;;9.13;2.97;;;17.00;99.90;;;;;;5063109;28;20032;-84
2022/10/20 07:57:46;;;;;;;10.35;2.78;;;17.10;99.90;;;;;;5060001;28;20044;-84
2022/10/20 08:00:12;;;;;;;8.98;2.50;;;17.10;99.90;;;;;;5056748;28;20075;-84
2022/10/20 08:02:39;;;;;;;6.82;2.55;;;17.10;99.90;;;;;;5059519;28;20013;-84
2022/10/20 08:05:06;;;;;;;10.55;2.70;;;17.10;99.90;;;;;;5062070;28;20040;-84
2022/10/20 08:07:31;;;;;;;7.75;2.47;;;17.10;99.90;;;;;;5062652;28;20108;-84
2022/10/20 08:09:57;;;;;;;8.32;2.63;;;17.10;99.90;;;;;;5061074;28;20154;-84
2022/10/20 08:12:22;;;;;;;10.43;2.20;;;17.10;99.90;;;;;;5055182;28;20417;-84
2022/10/20 08:14:48;;;;;;;8.30;2.67;;;17.10;99.90;;;;;;5057661;28;20021;-84
2022/10/20 08:17:13;;;;;;;11.95;2.70;;;17.10;99.90;;;;;;5053471;28;20071;-86
2022/10/20 08:19:39;;;;;;;8.15;2.30;;;17.10;99.90;;;;;;5054132;28;20037;-85
2022/10/20 08:22:05;;;;;;;7.85;2.85;;;17.20;99.90;;;;;;5052875;28;20021;-84
2022/10/20 08:24:30;;;;;;;11.00;2.63;;;17.30;99.90;;;;;;5051566;28;20047;-84
2022/10/20 08:26:56;;;;;;;7.40;2.38;;;17.50;99.90;;;;;;5051684;28;20017;-84
2022/10/20 08:29:22;;;;;;;9.45;2.33;;;17.50;99.90;;;;;;5050179;28;20033;-84
2022/10/20 08:31:47;;;;;;;8.02;2.75;;;17.50;99.90;;;;;;5058944;28;20021;-85
2022/10/20 08:34:13;;;;;;;8.65;2.88;;;17.60;99.90;;;;;;5057523;28;20068;-84
2022/10/20 08:36:38;;;;;;;7.75;2.60;;;17.80;99.90;;;;;;5063649;28;20505;-84
2022/10/20 08:39:04;;;;;;;8.00;2.35;;;17.90;99.90;;;;;;5058794;28;20059;-86
2022/10/20 08:41:33;;;;;;;11.07;2.53;;;18.00;99.90;;;;;;5057089;28;20043;-87
2022/10/20 08:44:01;;;;;;;10.30;3.35;;;18.10;99.90;;;;;;5063787;28;20135;-83
2022/10/20 08:46:33;;;;;;;12.90;3.50;;;18.20;99.90;;;;;;5054921;28;20405;-84
2022/10/20 08:49:00;;;;;;;11.00;3.30;;;18.20;99.90;;;;;;5052860;28;20056;-84
2022/10/20 08:51:32;;;;;;;12.68;2.75;;;18.30;99.90;;;;;;5050740;28;20025;-84
2022/10/20 08:54:00;;;;;;;9.93;2.63;;;18.40;99.90;;;;;;5054222;28;20070;-83
2022/10/20 08:56:28;;;;;;;6.53;2.15;;;18.50;99.90;;;;;;5060858;28;20043;-84
2022/10/20 08:58:55;;;;;;;8.00;2.35;;;18.60;99.90;;;;;;5060143;28;20064;-84
2022/10/20 09:01:31;;;;;;;11.05;2.75;;;18.80;99.90;;;;;;5056585;28;20025;-83
2022/10/20 09:04:02;;;;;;;8.40;2.55;;;19.00;99.90;;;;;;5056103;28;20071;-84
2022/10/20 09:06:28;;;;;;;12.35;2.90;;;18.90;99.90;;;;;;5062515;28;20021;-83
2022/10/20 09:08:55;;;;;;;7.60;2.35;;;18.90;99.90;;;;;;5057303;28;20509;-83
2022/10/20 09:11:30;;;;;;;11.13;2.65;;;19.00;99.90;;;;;;5067504;28;20439;-84
2022/10/20 09:13:56;;;;;;;14.75;2.65;;;19.10;99.90;;;;;;5057134;28;20021;-84
2022/10/20 09:16:36;;;;;;;4.97;2.20;;;19.10;99.90;;;;;;5058386;28;20032;-84
2022/10/20 09:19:05;;;;;;;12.50;2.92;;;19.30;99.90;;;;;;5060097;28;20044;-83
2022/10/20 09:21:34;;;;;;;7.95;2.60;;;19.60;99.90;;;;;;5063304;28;20428;-84
2022/10/20 09:24:03;;;;;;;9.60;2.75;;;19.80;99.90;;;;;;5054987;28;20028;-83
2022/10/20 09:26:40;;;;;;;13.45;2.83;;;19.90;99.90;;;;;;5055291;28;20029;-83
2022/10/20 09:29:20;;;;;;;12.95;3.40;;;19.70;99.90;;;;;;5053472;28;20500;-83
2022/10/20 09:31:53;;;;;;;17.83;3.47;;;19.60;99.90;;;;;;5063125;28;20024;-84
2022/10/20 09:34:22;;;;;;;15.13;3.13;;;19.60;99.90;;;;;;5060660;28;20513;-83
2022/10/20 09:36:50;;;;;;;8.93;2.83;;;19.60;99.90;;;;;;5061012;28;20017;-83
2022/10/20 09:39:26;;;;;;;12.93;3.53;;;19.60;99.90;;;;;;5059257;28;20033;-83
2022/10/20 09:42:03;;;;;;;9.75;2.80;;;19.70;99.90;;;;;;5059120;28;20068;-83
2022/10/20 09:44:32;;;;;;;13.57;3.00;;;19.70;99.90;;;;;;5055470;28;20493;-83
2022/10/20 09:47:00;;;;;;;16.85;3.58;;;19.80;99.90;;;;;;5057415;28;20075;-84
2022/10/20 09:49:37;;;;;;;9.35;3.20;;;19.70;99.90;;;;;;5054944;28;20032;-83
2022/10/20 09:52:18;;;;;;;9.52;2.55;;;19.80;99.90;;;;;;5059664;28;20119;-83
2022/10/20 09:54:49;;;;;;;14.23;3.38;;;19.90;99.90;;;;;;5053296;28;20021;-83
2022/10/20 09:57:20;;;;;;;15.20;3.30;;;19.90;99.90;;;;;;5062264;28;20062;-83
2022/10/20 09:59:49;;;;;;;9.30;2.92;;;19.90;99.90;;;;;;5060110;28;20017;-84
2022/10/20 10:02:14;;;;;;;10.90;3.17;;;19.90;99.90;;;;;;5059865;28;20079;-83
2022/10/20 10:04:46;;;;;;;11.98;3.60;;;20.00;99.90;;;;;;5063067;28;20484;-83
2022/10/20 10:07:20;;;;;;;12.05;3.28;;;20.00;99.90;;;;;;5067817;28;20025;-83
2022/10/20 10:10:03;;;;;;;12.02;3.03;;;20.20;99.90;;;;;;5062858;28;20036;-83
2022/10/20 10:12:30;;;;;;;13.00;3.97;;;20.30;99.90;;;;;;5057906;28;20055;-83
2022/10/20 10:15:03;;;;;;;12.25;3.08;;;20.30;99.90;;;;;;5061190;28;20524;-83
2022/10/20 10:17:42;;;;;;;13.15;3.50;;;20.30;99.90;;;;;;5056612;28;20025;-83
2022/10/20 10:20:11;;;;;;;10.45;3.65;;;20.40;99.90;;;;;;5057934;28;20238;-83
2022/10/20 10:22:38;;;;;;;10.52;3.42;;;20.50;99.90;;;;;;5054263;28;20070;-83
2022/10/20 10:25:05;;;;;;;11.55;3.65;;;20.50;99.90;;;;;;5055810;28;20431;-83
2022/10/20 10:27:33;;;;;;;11.10;3.15;;;20.40;99.90;;;;;;5053321;28;20017;-83
2022/10/20 10:30:17;;;;;;;8.98;3.67;;;20.50;99.90;;;;;;5052858;28;20568;-83
2022/10/20 10:32:45;;;;;;;7.18;3.17;;;20.60;99.90;;;;;;5058725;28;20555;-83
2022/10/20 10:35:36;;;;;;;12.55;4.13;;;20.80;99.90;;;;;;5061321;28;20049;-84
2022/10/20 10:38:02;;;;;;;8.93;3.70;;;21.10;99.90;;;;;;5057512;28;20474;-84
2022/10/20 10:40:47;;;;;;;13.05;3.67;;;21.40;99.90;;;;;;5060613;28;20036;-83
2022/10/20 10:43:28;;;;;;;18.92;3.70;;;21.70;99.90;;;;;;5055576;28;20032;-83
2022/10/20 10:46:00;;;;;;;12.55;4.05;;;21.70;99.90;;;;;;5064896;28;20448;-84
2022/10/20 10:48:47;;;;;;;12.75;3.20;;;21.80;99.90;;;;;;5054703;28;20025;-84
2022/10/20 10:51:23;;;;;;;13.57;3.25;;;21.80;99.90;;;;;;5053460;28;20021;-83
2022/10/20 10:54:07;;;;;;;12.02;3.67;;;21.70;99.90;;;;;;5053358;28;21797;-83
2022/10/20 10:56:54;;;;;;;12.38;2.95;;;21.70;99.90;;;;;;5063106;28;20024;-83
2022/10/20 10:59:27;;;;;;;11.50;4.13;;;21.70;99.90;;;;;;5068742;28;20051;-84
2022/10/20 11:02:16;;;;;;;12.23;3.30;;;21.80;99.90;;;;;;5062290;28;20363;-83
2022/10/20 11:05:04;;;;;;;11.77;3.67;;;21.60;99.90;;;;;;5068563;28;20297;-84
2022/10/20 11:07:29;;;;;;;15.60;4.47;;;21.30;99.90;;;;;;5071202;28;20029;-84
2022/10/20 11:10:09;;;;;;;14.30;4.00;;;21.30;99.90;;;;;;5063623;28;20392;-84
2022/10/20 11:12:50;;;;;;;13.18;3.70;;;21.30;99.90;;;;;;5057086;28;20021;-84
2022/10/20 11:15:34;;;;;;;17.95;4.32;;;21.40;99.90;;;;;;5064606;28;20485;-84
2022/10/20 11:18:35;;;;;;;14.52;4.35;;;21.50;99.90;;;;;;5057338;28;20139;-83
2022/10/20 11:21:06;;;;;;;12.90;3.45;;;21.70;99.90;;;;;;5053975;28;20025;-84
2022/10/20 11:24:02;;;;;;;16.55;4.70;;;21.60;99.90;;;;;;5055907;28;20086;-83
2022/10/20 11:26:36;;;;;;;14.45;4.25;;;21.40;99.90;;;;;;5054462;28;20036;-84
2022/10/20 11:29:11;;;;;;;17.20;4.28;;;21.30;99.90;;;;;;5063063;28;20017;-83
2022/10/20 11:31:54;;;;;;;15.27;3.60;;;21.50;99.90;;;;;;5053165;28;20116;-83
2022/10/20 11:34:44;;;;;;;21.92;3.88;;;21.50;99.90;;;;;;5059406;28;20132;-84
2022/10/20 11:37:23;;;;;;;18.23;3.50;;;21.70;99.90;;;;;;5061705;28;20025;-83
2022/10/20 11:40:14;;;;;;;13.10;3.42;;;21.90;99.90;;;;;;5055693;28;20052;-84
2022/10/20 11:43:05;;;;;;;19.73;3.85;;;22.10;99.90;;;;;;5064016;28;20017;-84
2022/10/20 11:45:49;;;;;;;12.95;2.92;;;22.30;99.90;;;;;;5056359;28;20404;-84
2022/10/20 11:48:19;;;;;;;11.32;2.95;;;22.30;99.90;;;;;;5053225;28;20029;-84
2022/10/20 11:51:12;;;;;;;14.05;3.10;;;22.40;99.90;;;;;;5054574;28;20546;-84
2022/10/20 11:54:15;;;;;;;10.38;3.20;;;22.30;99.90;;;;;;5035751;28;20037;-83
2022/10/20 11:57:21;;;;;;;8.07;2.35;;;22.00;99.90;;;;;;5050818;28;20108;-84
2022/10/20 11:59:50;;;;;;;17.35;3.70;;;21.90;99.90;;;;;;5024643;28;20179;-84
2022/10/20 12:02:28;;;;;;;11.60;2.67;;;21.90;99.90;;;;;;5024467;28;20108;-84
2022/10/20 12:05:42;;;;;;;13.90;3.13;;;21.90;99.90;;;;;;5048893;28;20114;-84
2022/10/20 12:08:22;;;;;;;13.95;2.90;;;22.20;99.90;;;;;;5025399;28;20137;-84
2022/10/20 12:11:09;;;;;;;7.85;2.63;;;22.30;99.90;;;;;;5056835;28;20021;-83
2022/10/20 12:13:51;;;;;;;10.73;3.00;;;22.40;99.90;;;;;;5063784;28;20566;-84
2022/10/20 12:16:50;;;;;;;10.82;3.08;;;22.30;99.90;;;;;;5056604;28;20028;-83
2022/10/20 12:19:19;;;;;;;14.85;2.85;;;22.30;99.90;;;;;;5054242;28;20014;-84
2022/10/20 12:21:55;;;;;;;13.98;3.03;;;22.60;99.90;;;;;;5056089;28;20016;-84
2022/10/20 12:24:37;;;;;;;12.55;2.92;;;22.90;99.90;;;;;;5057807;28;20037;-84
2022/10/20 12:27:09;;;;;;;13.45;3.10;;;23.10;99.90;;;;;;5063346;28;20106;-83
2022/10/20 12:29:34;;;;;;;13.43;2.70;;;23.40;99.90;;;;;;5050551;28;20107;-84
2022/10/20 12:32:24;;;;;;;10.93;2.67;;;23.50;99.90;;;;;;5055448;28;20107;-83
2022/10/20 12:34:52;;;;;;;11.68;2.67;;;23.30;99.90;;;;;;5061711;28;20061;-84
2022/10/20 12:37:23;;;;;;;15.10;3.38;;;23.30;99.90;;;;;;5060570;28;20021;-84
2022/10/20 12:39:50;;;;;;;14.10;3.17;;;23.40;99.90;;;;;;5054961;28;20444;-84
2022/10/20 12:42:31;;;;;;;14.55;3.00;;;23.30;99.90;;;;;;5058210;28;20028;-84
2022/10/20 12:45:06;;;;;;;12.85;2.83;;;23.20;99.90;;;;;;5057674;28;20138;-84
2022/10/20 12:47:35;;;;;;;15.20;3.17;;;23.00;99.90;;;;;;5063103;28;20017;-84
2022/10/20 12:50:28;;;;;;;15.27;3.22;;;23.10;99.90;;;;;;5051914;28;20025;-84
2022/10/20 12:52:54;;;;;;;18.85;3.50;;;23.10;99.90;;;;;;5056636;28;20025;-84
2022/10/20 12:55:34;;;;;;;17.05;3.40;;;23.10;99.90;;;;;;5050678;28;20435;-84
2022/10/20 12:58:10;;;;;;;17.15;4.10;;;23.10;99.90;;;;;;5056769;28;20013;-84
2022/10/20 13:00:36;;;;;;;15.20;3.25;;;22.90;99.90;;;;;;5058311;28;20021;-84